sensor_id;sensor_type;location;lat;lon;timestamp;pressure;altitude;pressure_sealevel;temperature;humidity
76084;BME280;64789;0.000;0.000;2023-08-17T00:00:57;93820.47;;;18.35;64.77
76084;BME280;64789;0.000;0.000;2023-08-17T00:03:22;93817.09;;;18.27;65.19
76084;BME280;64789;0.000;0.000;2023-08-17T00:05:48;93824.50;;;18.32;64.90
76084;BME280;64789;0.000;0.000;2023-08-17T00:08:14;93820.41;;;18.23;65.51
76084;BME280;64789;0.000;0.000;2023-08-17T00:10:40;93831.56;;;18.21;65.50
76084;BME280;64789;0.000;0.000;2023-08-17T00:13:05;93837.94;;;18.22;65.43
76084;BME280;64789;0.000;0.000;2023-08-17T00:15:31;93819.38;;;18.19;65.44
76084;BME280;64789;0.000;0.000;2023-08-17T00:17:57;93827.31;;;18.11;65.24
76084;BME280;64789;0.000;0.000;2023-08-17T00:20:23;93800.75;;;17.95;65.18
76084;BME280;64789;0.000;0.000;2023-08-17T00:22:49;93811.59;;;17.98;65.88
76084;BME280;64789;0.000;0.000;2023-08-17T00:25:14;93818.19;;;17.91;65.80
76084;BME280;64789;0.000;0.000;2023-08-17T00:27:40;93815.63;;;18.26;62.60
76084;BME280;64789;0.000;0.000;2023-08-17T00:30:06;93808.34;;;18.23;63.55
76084;BME280;64789;0.000;0.000;2023-08-17T00:32:32;93809.34;;;18.27;63.87
76084;BME280;64789;0.000;0.000;2023-08-17T00:34:58;93806.72;;;18.20;63.96
76084;BME280;64789;0.000;0.000;2023-08-17T00:37:23;93810.28;;;18.20;63.87
76084;BME280;64789;0.000;0.000;2023-08-17T00:39:49;93812.78;;;18.26;63.33
76084;BME280;64789;0.000;0.000;2023-08-17T00:42:14;93805.81;;;18.17;63.68
76084;BME280;64789;0.000;0.000;2023-08-17T00:44:41;93808.53;;;18.15;64.07
76084;BME280;64789;0.000;0.000;2023-08-17T00:47:07;93811.28;;;18.04;64.53
76084;BME280;64789;0.000;0.000;2023-08-17T00:49:33;93806.75;;;18.10;63.03
76084;BME280;64789;0.000;0.000;2023-08-17T00:52:00;93801.00;;;18.29;62.86
76084;BME280;64789;0.000;0.000;2023-08-17T00:54:26;93807.13;;;18.26;63.67
76084;BME280;64789;0.000;0.000;2023-08-17T00:56:52;93802.00;;;18.13;64.04
76084;BME280;64789;0.000;0.000;2023-08-17T00:59:19;93797.00;;;18.02;64.68
76084;BME280;64789;0.000;0.000;2023-08-17T01:01:44;93802.31;;;18.07;64.93
76084;BME280;64789;0.000;0.000;2023-08-17T01:04:11;93799.78;;;18.11;64.65
76084;BME280;64789;0.000;0.000;2023-08-17T01:06:36;93799.22;;;18.24;63.03
76084;BME280;64789;0.000;0.000;2023-08-17T01:09:05;93795.69;;;18.24;63.98
76084;BME280;64789;0.000;0.000;2023-08-17T01:11:36;93790.28;;;18.28;63.50
76084;BME280;64789;0.000;0.000;2023-08-17T01:16:31;93791.59;;;18.58;61.77
76084;BME280;64789;0.000;0.000;2023-08-17T01:18:58;93796.56;;;18.69;61.11
76084;BME280;64789;0.000;0.000;2023-08-17T01:21:25;93796.56;;;18.69;61.93
76084;BME280;64789;0.000;0.000;2023-08-17T01:23:57;93794.63;;;18.71;62.19
76084;BME280;64789;0.000;0.000;2023-08-17T01:26:23;93799.81;;;18.75;61.59
76084;BME280;64789;0.000;0.000;2023-08-17T01:28:48;93804.31;;;18.68;62.81
76084;BME280;64789;0.000;0.000;2023-08-17T01:31:16;93807.00;;;18.66;62.91
76084;BME280;64789;0.000;0.000;2023-08-17T01:33:47;93802.63;;;18.54;63.53
76084;BME280;64789;0.000;0.000;2023-08-17T01:38:43;93793.16;;;18.49;63.97
76084;BME280;64789;0.000;0.000;2023-08-17T01:41:09;93792.56;;;18.51;63.52
76084;BME280;64789;0.000;0.000;2023-08-17T01:43:41;93794.94;;;18.45;64.24
76084;BME280;64789;0.000;0.000;2023-08-17T01:46:14;93795.75;;;18.35;64.25
76084;BME280;64789;0.000;0.000;2023-08-17T01:48:46;93795.47;;;18.10;65.15
76084;BME280;64789;0.000;0.000;2023-08-17T01:51:17;93775.59;;;17.99;65.09
76084;BME280;64789;0.000;0.000;2023-08-17T01:53:43;93792.03;;;18.12;65.12
76084;BME280;64789;0.000;0.000;2023-08-17T01:56:09;93789.53;;;18.06;65.35
76084;BME280;64789;0.000;0.000;2023-08-17T01:58:35;93786.75;;;17.97;65.56
76084;BME280;64789;0.000;0.000;2023-08-17T02:01:00;93787.41;;;17.86;65.76
76084;BME280;64789;0.000;0.000;2023-08-17T02:03:26;93789.34;;;17.83;65.98
76084;BME280;64789;0.000;0.000;2023-08-17T02:05:57;93788.19;;;17.77;65.79
76084;BME280;64789;0.000;0.000;2023-08-17T02:08:23;93787.09;;;17.60;66.08
76084;BME280;64789;0.000;0.000;2023-08-17T02:10:48;93790.97;;;17.46;66.74
76084;BME280;64789;0.000;0.000;2023-08-17T02:13:14;93798.25;;;17.39;66.67
76084;BME280;64789;0.000;0.000;2023-08-17T02:15:40;93793.97;;;17.38;66.24
76084;BME280;64789;0.000;0.000;2023-08-17T02:18:05;93793.41;;;17.21;66.83
76084;BME280;64789;0.000;0.000;2023-08-17T02:20:31;93787.78;;;17.11;67.49
76084;BME280;64789;0.000;0.000;2023-08-17T02:22:57;93789.25;;;17.12;66.94
76084;BME280;64789;0.000;0.000;2023-08-17T02:25:22;93786.03;;;17.06;66.86
76084;BME280;64789;0.000;0.000;2023-08-17T02:27:50;93785.84;;;17.14;66.74
76084;BME280;64789;0.000;0.000;2023-08-17T02:30:16;93782.44;;;17.05;66.78
76084;BME280;64789;0.000;0.000;2023-08-17T02:32:41;93782.16;;;17.01;66.54
76084;BME280;64789;0.000;0.000;2023-08-17T02:35:07;93784.56;;;16.76;67.69
76084;BME280;64789;0.000;0.000;2023-08-17T02:37:33;93780.41;;;16.96;66.22
76084;BME280;64789;0.000;0.000;2023-08-17T02:39:58;93779.06;;;16.78;66.79
76084;BME280;64789;0.000;0.000;2023-08-17T02:42:24;93779.81;;;16.88;66.46
76084;BME280;64789;0.000;0.000;2023-08-17T02:44:49;93782.75;;;16.90;66.44
76084;BME280;64789;0.000;0.000;2023-08-17T02:47:15;93771.63;;;16.83;66.76
76084;BME280;64789;0.000;0.000;2023-08-17T02:49:41;93768.97;;;16.66;67.14
76084;BME280;64789;0.000;0.000;2023-08-17T02:52:08;93766.88;;;16.76;66.62
76084;BME280;64789;0.000;0.000;2023-08-17T02:54:34;93771.47;;;16.90;65.18
76084;BME280;64789;0.000;0.000;2023-08-17T02:57:00;93765.56;;;16.86;66.06
76084;BME280;64789;0.000;0.000;2023-08-17T02:59:25;93770.59;;;16.78;66.63
76084;BME280;64789;0.000;0.000;2023-08-17T03:01:50;93773.88;;;16.65;67.35
76084;BME280;64789;0.000;0.000;2023-08-17T03:04:16;93781.16;;;16.59;67.51
76084;BME280;64789;0.000;0.000;2023-08-17T03:06:42;93771.50;;;16.52;67.33
76084;BME280;64789;0.000;0.000;2023-08-17T03:09:07;93777.91;;;16.53;67.73
76084;BME280;64789;0.000;0.000;2023-08-17T03:11:33;93779.81;;;16.40;67.75
76084;BME280;64789;0.000;0.000;2023-08-17T03:13:59;93778.31;;;16.49;67.87
76084;BME280;64789;0.000;0.000;2023-08-17T03:16:26;93776.69;;;16.56;67.14
76084;BME280;64789;0.000;0.000;2023-08-17T03:18:52;93774.16;;;16.50;67.80
76084;BME280;64789;0.000;0.000;2023-08-17T03:21:18;93779.38;;;16.54;66.93
76084;BME280;64789;0.000;0.000;2023-08-17T03:23:45;93777.91;;;16.53;67.07
76084;BME280;64789;0.000;0.000;2023-08-17T03:26:11;93780.69;;;16.43;68.00
76084;BME280;64789;0.000;0.000;2023-08-17T03:28:36;93788.84;;;16.49;66.87
76084;BME280;64789;0.000;0.000;2023-08-17T03:31:03;93781.41;;;16.34;67.89
76084;BME280;64789;0.000;0.000;2023-08-17T03:33:29;93788.56;;;16.35;67.52
76084;BME280;64789;0.000;0.000;2023-08-17T03:35:55;93789.59;;;16.30;67.82
76084;BME280;64789;0.000;0.000;2023-08-17T03:38:20;93782.44;;;16.38;67.12
76084;BME280;64789;0.000;0.000;2023-08-17T03:40:46;93790.63;;;16.34;67.57
76084;BME280;64789;0.000;0.000;2023-08-17T03:43:13;93794.94;;;16.35;67.20
76084;BME280;64789;0.000;0.000;2023-08-17T03:45:40;93793.00;;;16.28;68.02
76084;BME280;64789;0.000;0.000;2023-08-17T03:48:06;93789.28;;;16.26;67.78
76084;BME280;64789;0.000;0.000;2023-08-17T03:50:32;93779.47;;;16.27;67.68
76084;BME280;64789;0.000;0.000;2023-08-17T03:52:57;93784.56;;;16.38;66.66
76084;BME280;64789;0.000;0.000;2023-08-17T03:55:23;93795.06;;;16.28;67.71
76084;BME280;64789;0.000;0.000;2023-08-17T03:57:48;93796.13;;;16.32;67.33
76084;BME280;64789;0.000;0.000;2023-08-17T04:00:14;93799.22;;;16.36;67.26
76084;BME280;64789;0.000;0.000;2023-08-17T04:02:40;93792.75;;;16.63;64.83
76084;BME280;64789;0.000;0.000;2023-08-17T04:05:06;93798.97;;;16.80;64.47
76084;BME280;64789;0.000;0.000;2023-08-17T04:07:31;93801.22;;;16.82;65.12
76084;BME280;64789;0.000;0.000;2023-08-17T04:09:57;93790.06;;;16.84;65.29
76084;BME280;64789;0.000;0.000;2023-08-17T04:12:23;93795.09;;;16.85;65.76
76084;BME280;64789;0.000;0.000;2023-08-17T04:14:49;93795.97;;;16.88;65.74
76084;BME280;64789;0.000;0.000;2023-08-17T04:17:14;93792.09;;;17.12;63.03
76084;BME280;64789;0.000;0.000;2023-08-17T04:19:41;93800.19;;;17.37;61.92
76084;BME280;64789;0.000;0.000;2023-08-17T04:22:08;93800.63;;;17.52;61.13
76084;BME280;64789;0.000;0.000;2023-08-17T04:24:34;93793.41;;;17.70;60.28
76084;BME280;64789;0.000;0.000;2023-08-17T04:27:00;93791.91;;;17.79;60.26
76084;BME280;64789;0.000;0.000;2023-08-17T04:29:25;93795.88;;;17.86;59.85
76084;BME280;64789;0.000;0.000;2023-08-17T04:31:51;93794.41;;;17.85;60.72
76084;BME280;64789;0.000;0.000;2023-08-17T04:34:17;93789.78;;;17.89;60.27
76084;BME280;64789;0.000;0.000;2023-08-17T04:36:43;93787.59;;;18.09;59.89
76084;BME280;64789;0.000;0.000;2023-08-17T04:39:08;93791.81;;;18.19;60.11
76084;BME280;64789;0.000;0.000;2023-08-17T04:41:34;93790.63;;;18.22;60.04
76084;BME280;64789;0.000;0.000;2023-08-17T04:44:03;93793.75;;;18.26;60.84
76084;BME280;64789;0.000;0.000;2023-08-17T04:46:29;93790.63;;;18.22;62.16
76084;BME280;64789;0.000;0.000;2023-08-17T04:48:55;93793.13;;;18.28;62.46
76084;BME280;64789;0.000;0.000;2023-08-17T04:51:21;93791.84;;;18.41;61.25
76084;BME280;64789;0.000;0.000;2023-08-17T04:53:46;93788.66;;;18.56;60.41
76084;BME280;64789;0.000;0.000;2023-08-17T04:56:12;93786.47;;;18.66;60.34
76084;BME280;64789;0.000;0.000;2023-08-17T04:58:38;93792.28;;;18.68;62.02
76084;BME280;64789;0.000;0.000;2023-08-17T05:01:04;93793.41;;;18.74;63.02
76084;BME280;64789;0.000;0.000;2023-08-17T05:03:30;93786.78;;;18.81;61.64
76084;BME280;64789;0.000;0.000;2023-08-17T05:05:56;93787.09;;;18.97;61.62
76084;BME280;64789;0.000;0.000;2023-08-17T05:08:22;93796.25;;;19.07;61.03
76084;BME280;64789;0.000;0.000;2023-08-17T05:10:48;93793.34;;;19.17;60.99
76084;BME280;64789;0.000;0.000;2023-08-17T05:13:14;93788.91;;;19.25;61.70
76084;BME280;64789;0.000;0.000;2023-08-17T05:15:39;93787.47;;;19.36;61.26
76084;BME280;64789;0.000;0.000;2023-08-17T05:18:08;93787.50;;;19.47;60.87
76084;BME280;64789;0.000;0.000;2023-08-17T05:20:33;93791.84;;;19.60;61.07
76084;BME280;64789;0.000;0.000;2023-08-17T05:22:59;93793.22;;;19.71;60.54
76084;BME280;64789;0.000;0.000;2023-08-17T05:25:25;93795.69;;;19.76;63.34
76084;BME280;64789;0.000;0.000;2023-08-17T05:27:51;93806.91;;;19.86;64.25
76084;BME280;64789;0.000;0.000;2023-08-17T05:30:17;93802.97;;;19.91;64.21
76084;BME280;64789;0.000;0.000;2023-08-17T05:32:43;93799.28;;;20.00;63.89
76084;BME280;64789;0.000;0.000;2023-08-17T05:35:09;93802.72;;;20.10;63.69
76084;BME280;64789;0.000;0.000;2023-08-17T05:37:36;93806.91;;;20.20;62.89
76084;BME280;64789;0.000;0.000;2023-08-17T05:40:01;93799.78;;;20.31;62.69
76084;BME280;64789;0.000;0.000;2023-08-17T05:42:27;93807.28;;;20.38;62.49
76084;BME280;64789;0.000;0.000;2023-08-17T05:44:53;93806.53;;;20.49;62.54
76084;BME280;64789;0.000;0.000;2023-08-17T05:47:21;93802.31;;;20.62;62.04
76084;BME280;64789;0.000;0.000;2023-08-17T05:49:46;93800.06;;;20.72;61.60
76084;BME280;64789;0.000;0.000;2023-08-17T05:52:12;93798.44;;;20.80;61.27
76084;BME280;64789;0.000;0.000;2023-08-17T05:54:38;93803.97;;;20.90;61.45
76084;BME280;64789;0.000;0.000;2023-08-17T05:57:04;93805.69;;;20.95;61.10
76084;BME280;64789;0.000;0.000;2023-08-17T05:59:29;93809.84;;;21.06;61.71
76084;BME280;64789;0.000;0.000;2023-08-17T06:01:55;93804.25;;;21.19;61.25
76084;BME280;64789;0.000;0.000;2023-08-17T06:04:20;93805.56;;;21.30;61.06
76084;BME280;64789;0.000;0.000;2023-08-17T06:06:46;93810.66;;;21.45;60.94
76084;BME280;64789;0.000;0.000;2023-08-17T06:09:12;93816.91;;;21.55;60.55
76084;BME280;64789;0.000;0.000;2023-08-17T06:11:39;93804.84;;;21.68;60.36
76084;BME280;64789;0.000;0.000;2023-08-17T06:14:05;93814.69;;;21.79;59.62
76084;BME280;64789;0.000;0.000;2023-08-17T06:16:31;93811.69;;;21.88;59.56
76084;BME280;64789;0.000;0.000;2023-08-17T06:18:57;93806.75;;;22.02;60.27
76084;BME280;64789;0.000;0.000;2023-08-17T06:21:22;93805.06;;;22.11;60.07
76084;BME280;64789;0.000;0.000;2023-08-17T06:23:48;93808.66;;;22.25;60.08
76084;BME280;64789;0.000;0.000;2023-08-17T06:26:14;93805.72;;;22.37;60.00
76084;BME280;64789;0.000;0.000;2023-08-17T06:28:39;93810.88;;;22.54;59.06
76084;BME280;64789;0.000;0.000;2023-08-17T06:31:05;93812.03;;;22.62;59.57
76084;BME280;64789;0.000;0.000;2023-08-17T06:33:31;93813.22;;;22.71;59.08
76084;BME280;64789;0.000;0.000;2023-08-17T06:35:56;93816.69;;;22.83;57.50
76084;BME280;64789;0.000;0.000;2023-08-17T06:38:22;93820.88;;;22.96;57.27
76084;BME280;64789;0.000;0.000;2023-08-17T06:40:47;93817.72;;;23.03;56.56
76084;BME280;64789;0.000;0.000;2023-08-17T06:43:13;93824.28;;;23.21;55.69
76084;BME280;64789;0.000;0.000;2023-08-17T06:45:39;93816.66;;;23.39;56.80
76084;BME280;64789;0.000;0.000;2023-08-17T06:48:05;93825.50;;;23.45;56.00
76084;BME280;64789;0.000;0.000;2023-08-17T06:50:30;93828.84;;;23.56;54.12
76084;BME280;64789;0.000;0.000;2023-08-17T06:52:56;93832.94;;;23.66;53.24
76084;BME280;64789;0.000;0.000;2023-08-17T06:55:22;93829.81;;;23.76;53.32
76084;BME280;64789;0.000;0.000;2023-08-17T06:57:47;93827.63;;;23.90;52.82
76084;BME280;64789;0.000;0.000;2023-08-17T07:00:17;93823.88;;;24.01;51.46
76084;BME280;64789;0.000;0.000;2023-08-17T07:02:46;93825.44;;;24.04;51.61
76084;BME280;64789;0.000;0.000;2023-08-17T07:05:12;93829.53;;;24.14;51.66
76084;BME280;64789;0.000;0.000;2023-08-17T07:07:38;93819.41;;;24.27;51.50
76084;BME280;64789;0.000;0.000;2023-08-17T07:10:04;93815.22;;;24.46;51.53
76084;BME280;64789;0.000;0.000;2023-08-17T07:12:32;93820.94;;;24.46;50.80
76084;BME280;64789;0.000;0.000;2023-08-17T07:14:58;93821.09;;;24.65;50.85
76084;BME280;64789;0.000;0.000;2023-08-17T07:17:24;93824.72;;;24.82;50.29
76084;BME280;64789;0.000;0.000;2023-08-17T07:19:49;93830.97;;;24.94;48.35
76084;BME280;64789;0.000;0.000;2023-08-17T07:22:15;93826.16;;;24.98;48.12
76084;BME280;64789;0.000;0.000;2023-08-17T07:24:42;93825.75;;;25.06;47.95
76084;BME280;64789;0.000;0.000;2023-08-17T07:27:07;93833.72;;;25.25;47.50
76084;BME280;64789;0.000;0.000;2023-08-17T07:29:33;93822.94;;;25.23;47.04
76084;BME280;64789;0.000;0.000;2023-08-17T07:31:59;93833.00;;;25.42;48.03
76084;BME280;64789;0.000;0.000;2023-08-17T07:34:27;93821.09;;;25.48;46.49
76084;BME280;64789;0.000;0.000;2023-08-17T07:36:53;93826.31;;;25.53;46.45
76084;BME280;64789;0.000;0.000;2023-08-17T07:39:19;93816.19;;;25.68;46.06
76084;BME280;64789;0.000;0.000;2023-08-17T07:41:44;93828.78;;;25.78;45.29
76084;BME280;64789;0.000;0.000;2023-08-17T07:44:10;93824.41;;;25.95;45.39
76084;BME280;64789;0.000;0.000;2023-08-17T07:46:37;93819.00;;;26.03;44.63
76084;BME280;64789;0.000;0.000;2023-08-17T07:49:03;93821.38;;;26.08;45.63
76084;BME280;64789;0.000;0.000;2023-08-17T07:51:29;93821.69;;;26.17;44.23
76084;BME280;64789;0.000;0.000;2023-08-17T07:53:57;93819.59;;;26.17;44.28
76084;BME280;64789;0.000;0.000;2023-08-17T07:56:22;93822.34;;;26.33;44.03
76084;BME280;64789;0.000;0.000;2023-08-17T07:58:48;93815.44;;;26.40;44.33
76084;BME280;64789;0.000;0.000;2023-08-17T08:01:14;93830.06;;;26.48;43.46
76084;BME280;64789;0.000;0.000;2023-08-17T08:03:40;93821.47;;;26.48;43.34
76084;BME280;64789;0.000;0.000;2023-08-17T08:06:05;93808.47;;;26.64;43.61
76084;BME280;64789;0.000;0.000;2023-08-17T08:08:31;93809.88;;;26.83;43.30
76084;BME280;64789;0.000;0.000;2023-08-17T08:10:58;93811.41;;;26.86;43.36
76084;BME280;64789;0.000;0.000;2023-08-17T08:13:23;93803.03;;;26.92;43.51
76084;BME280;64789;0.000;0.000;2023-08-17T08:15:49;93800.97;;;26.95;43.08
76084;BME280;64789;0.000;0.000;2023-08-17T08:18:15;93803.53;;;27.06;43.08
76084;BME280;64789;0.000;0.000;2023-08-17T08:20:40;93804.59;;;27.17;43.67
76084;BME280;64789;0.000;0.000;2023-08-17T08:23:06;93797.69;;;27.24;42.49
76084;BME280;64789;0.000;0.000;2023-08-17T08:25:32;93800.44;;;27.42;43.48
76084;BME280;64789;0.000;0.000;2023-08-17T08:27:57;93797.84;;;27.50;42.84
76084;BME280;64789;0.000;0.000;2023-08-17T08:30:23;93799.72;;;27.63;41.82
76084;BME280;64789;0.000;0.000;2023-08-17T08:32:48;93797.88;;;27.73;41.69
76084;BME280;64789;0.000;0.000;2023-08-17T08:35:15;93797.19;;;27.73;40.68
76084;BME280;64789;0.000;0.000;2023-08-17T08:37:40;93791.81;;;27.85;40.66
76084;BME280;64789;0.000;0.000;2023-08-17T08:40:07;93785.84;;;28.00;39.69
76084;BME280;64789;0.000;0.000;2023-08-17T08:42:36;93793.22;;;28.29;37.44
76084;BME280;64789;0.000;0.000;2023-08-17T08:45:01;93791.53;;;28.22;36.63
76084;BME280;64789;0.000;0.000;2023-08-17T08:47:27;93789.75;;;28.35;37.09
76084;BME280;64789;0.000;0.000;2023-08-17T08:50:04;93786.34;;;28.40;37.50
76084;BME280;64789;0.000;0.000;2023-08-17T08:52:40;93791.47;;;28.68;35.61
76084;BME280;64789;0.000;0.000;2023-08-17T08:57:36;93788.03;;;28.73;36.29
76084;BME280;64789;0.000;0.000;2023-08-17T09:00:02;93794.31;;;28.93;33.71
76084;BME280;64789;0.000;0.000;2023-08-17T09:02:29;93783.22;;;28.82;35.55
76084;BME280;64789;0.000;0.000;2023-08-17T09:04:55;93781.75;;;28.81;35.76
76084;BME280;64789;0.000;0.000;2023-08-17T09:07:21;93780.41;;;29.09;33.93
76084;BME280;64789;0.000;0.000;2023-08-17T09:09:47;93776.69;;;29.05;34.30
76084;BME280;64789;0.000;0.000;2023-08-17T09:12:13;93782.00;;;29.16;34.40
76084;BME280;64789;0.000;0.000;2023-08-17T09:14:39;93773.88;;;29.35;33.03
76084;BME280;64789;0.000;0.000;2023-08-17T09:17:06;93774.13;;;29.17;34.30
76084;BME280;64789;0.000;0.000;2023-08-17T09:19:32;93774.25;;;29.21;34.48
76084;BME280;64789;0.000;0.000;2023-08-17T09:21:58;93764.78;;;29.18;34.18
76084;BME280;64789;0.000;0.000;2023-08-17T09:24:24;93762.25;;;29.31;34.73
76084;BME280;64789;0.000;0.000;2023-08-17T09:26:50;93762.06;;;29.52;33.00
76084;BME280;64789;0.000;0.000;2023-08-17T09:29:16;93763.59;;;29.55;32.96
76084;BME280;64789;0.000;0.000;2023-08-17T09:31:43;93760.97;;;29.65;32.41
76084;BME280;64789;0.000;0.000;2023-08-17T09:34:09;93759.59;;;29.68;32.83
76084;BME280;64789;0.000;0.000;2023-08-17T09:36:35;93763.97;;;29.71;33.67
76084;BME280;64789;0.000;0.000;2023-08-17T09:39:01;93761.88;;;29.74;33.81
76084;BME280;64789;0.000;0.000;2023-08-17T09:41:26;93763.41;;;30.07;31.80
76084;BME280;64789;0.000;0.000;2023-08-17T09:43:54;93759.00;;;30.04;31.79
76084;BME280;64789;0.000;0.000;2023-08-17T09:46:20;93742.94;;;29.95;31.44
76084;BME280;64789;0.000;0.000;2023-08-17T09:48:46;93753.78;;;29.96;32.32
76084;BME280;64789;0.000;0.000;2023-08-17T09:51:16;93754.59;;;30.01;32.37
76084;BME280;64789;0.000;0.000;2023-08-17T09:53:41;93744.19;;;29.85;32.42
76084;BME280;64789;0.000;0.000;2023-08-17T09:56:07;93752.28;;;29.93;33.51
76084;BME280;64789;0.000;0.000;2023-08-17T09:58:36;93748.44;;;30.14;29.50
76084;BME280;64789;0.000;0.000;2023-08-17T10:01:03;93738.41;;;30.17;30.01
76084;BME280;64789;0.000;0.000;2023-08-17T10:03:29;93734.13;;;30.20;30.82
76084;BME280;64789;0.000;0.000;2023-08-17T10:06:08;93728.94;;;30.13;31.19
76084;BME280;64789;0.000;0.000;2023-08-17T10:08:45;93728.00;;;30.34;31.23
76084;BME280;64789;0.000;0.000;2023-08-17T10:11:12;93736.06;;;30.41;30.18
76084;BME280;64789;0.000;0.000;2023-08-17T10:16:16;93734.06;;;30.50;30.32
76084;BME280;64789;0.000;0.000;2023-08-17T10:21:23;93730.56;;;30.53;29.60
76084;BME280;64789;0.000;0.000;2023-08-17T10:23:52;93719.47;;;30.76;29.18
76084;BME280;64789;0.000;0.000;2023-08-17T10:26:18;93734.34;;;30.64;29.62
76084;BME280;64789;0.000;0.000;2023-08-17T10:28:45;93732.88;;;30.61;29.57
76084;BME280;64789;0.000;0.000;2023-08-17T10:31:11;93719.69;;;30.52;31.18
76084;BME280;64789;0.000;0.000;2023-08-17T10:33:37;93733.13;;;30.73;29.93
76084;BME280;64789;0.000;0.000;2023-08-17T10:36:05;93727.88;;;30.64;29.92
76084;BME280;64789;0.000;0.000;2023-08-17T10:38:31;93712.78;;;30.67;30.60
76084;BME280;64789;0.000;0.000;2023-08-17T10:41:10;93717.34;;;30.78;29.54
76084;BME280;64789;0.000;0.000;2023-08-17T10:43:55;93722.34;;;30.76;29.70
76084;BME280;64789;0.000;0.000;2023-08-17T10:46:21;93716.44;;;30.70;30.11
76084;BME280;64789;0.000;0.000;2023-08-17T10:48:47;93710.94;;;30.84;29.63
76084;BME280;64789;0.000;0.000;2023-08-17T10:51:13;93718.25;;;30.89;29.65
76084;BME280;64789;0.000;0.000;2023-08-17T10:53:39;93710.91;;;30.82;29.82
76084;BME280;64789;0.000;0.000;2023-08-17T10:56:10;93712.81;;;31.05;29.97
76084;BME280;64789;0.000;0.000;2023-08-17T10:58:36;93716.34;;;31.01;29.92
76084;BME280;64789;0.000;0.000;2023-08-17T11:01:02;93702.03;;;31.07;30.42
76084;BME280;64789;0.000;0.000;2023-08-17T11:03:27;93699.44;;;31.26;30.00
76084;BME280;64789;0.000;0.000;2023-08-17T11:05:54;93702.50;;;31.36;28.92
76084;BME280;64789;0.000;0.000;2023-08-17T11:08:39;93700.28;;;31.32;29.40
76084;BME280;64789;0.000;0.000;2023-08-17T11:11:15;93689.22;;;31.18;30.23
76084;BME280;64789;0.000;0.000;2023-08-17T11:13:41;93691.56;;;31.28;31.88
76084;BME280;64789;0.000;0.000;2023-08-17T11:16:08;93692.63;;;31.47;32.77
76084;BME280;64789;0.000;0.000;2023-08-17T11:18:34;93686.28;;;31.56;33.08
76084;BME280;64789;0.000;0.000;2023-08-17T11:21:01;93685.00;;;31.67;29.63
76084;BME280;64789;0.000;0.000;2023-08-17T11:23:28;93676.84;;;31.54;28.95
76084;BME280;64789;0.000;0.000;2023-08-17T11:25:55;93684.19;;;31.61;31.99
76084;BME280;64789;0.000;0.000;2023-08-17T11:28:21;93682.88;;;31.72;33.83
76084;BME280;64789;0.000;0.000;2023-08-17T11:30:55;93689.94;;;31.61;32.67
76084;BME280;64789;0.000;0.000;2023-08-17T11:33:21;93680.50;;;31.56;32.73
76084;BME280;64789;0.000;0.000;2023-08-17T11:35:47;93668.84;;;31.50;33.36
76084;BME280;64789;0.000;0.000;2023-08-17T11:38:15;93673.66;;;31.38;33.74
76084;BME280;64789;0.000;0.000;2023-08-17T11:40:40;93680.13;;;31.34;34.00
76084;BME280;64789;0.000;0.000;2023-08-17T11:43:06;93683.09;;;31.40;33.62
76084;BME280;64789;0.000;0.000;2023-08-17T11:45:32;93666.72;;;31.53;30.18
76084;BME280;64789;0.000;0.000;2023-08-17T11:47:58;93671.13;;;31.58;31.83
76084;BME280;64789;0.000;0.000;2023-08-17T11:50:24;93665.50;;;31.68;33.40
76084;BME280;64789;0.000;0.000;2023-08-17T11:52:50;93668.53;;;31.78;34.89
76084;BME280;64789;0.000;0.000;2023-08-17T11:55:16;93668.69;;;31.88;35.16
76084;BME280;64789;0.000;0.000;2023-08-17T11:57:43;93665.06;;;31.88;34.50
76084;BME280;64789;0.000;0.000;2023-08-17T12:00:09;93662.00;;;31.75;33.17
76084;BME280;64789;0.000;0.000;2023-08-17T12:02:35;93681.41;;;31.69;33.84
76084;BME280;64789;0.000;0.000;2023-08-17T12:05:03;93666.84;;;31.61;34.53
76084;BME280;64789;0.000;0.000;2023-08-17T12:07:31;93664.28;;;31.83;34.58
76084;BME280;64789;0.000;0.000;2023-08-17T12:09:57;93666.31;;;31.74;34.33
76084;BME280;64789;0.000;0.000;2023-08-17T12:12:23;93664.84;;;31.71;35.15
76084;BME280;64789;0.000;0.000;2023-08-17T12:14:48;93671.06;;;31.54;34.57
76084;BME280;64789;0.000;0.000;2023-08-17T12:17:15;93663.00;;;31.04;34.86
76084;BME280;64789;0.000;0.000;2023-08-17T12:19:42;93657.72;;;30.53;35.37
76084;BME280;64789;0.000;0.000;2023-08-17T12:22:08;93654.63;;;30.43;36.01
76084;BME280;64789;0.000;0.000;2023-08-17T12:24:34;93653.31;;;30.50;36.21
76084;BME280;64789;0.000;0.000;2023-08-17T12:27:02;93654.47;;;30.73;35.01
76084;BME280;64789;0.000;0.000;2023-08-17T12:29:28;93659.34;;;31.02;35.75
76084;BME280;64789;0.000;0.000;2023-08-17T12:31:56;93646.41;;;31.03;36.21
76084;BME280;64789;0.000;0.000;2023-08-17T12:34:22;93655.56;;;30.91;35.53
76084;BME280;64789;0.000;0.000;2023-08-17T12:36:49;93656.53;;;31.06;35.78
76084;BME280;64789;0.000;0.000;2023-08-17T12:39:15;93654.53;;;31.14;36.36
76084;BME280;64789;0.000;0.000;2023-08-17T12:41:41;93655.47;;;30.87;36.33
76084;BME280;64789;0.000;0.000;2023-08-17T12:44:08;93653.56;;;30.62;36.83
76084;BME280;64789;0.000;0.000;2023-08-17T12:46:34;93648.38;;;30.54;36.32
76084;BME280;64789;0.000;0.000;2023-08-17T12:49:00;93655.66;;;30.95;36.53
76084;BME280;64789;0.000;0.000;2023-08-17T12:51:26;93642.28;;;31.18;36.22
76084;BME280;64789;0.000;0.000;2023-08-17T12:53:52;93650.13;;;31.11;36.34
76084;BME280;64789;0.000;0.000;2023-08-17T12:56:18;93654.56;;;31.18;35.76
76084;BME280;64789;0.000;0.000;2023-08-17T12:58:43;93645.09;;;31.12;35.80
76084;BME280;64789;0.000;0.000;2023-08-17T13:01:09;93644.91;;;31.00;36.52
76084;BME280;64789;0.000;0.000;2023-08-17T13:03:35;93650.13;;;31.11;36.51
76084;BME280;64789;0.000;0.000;2023-08-17T13:06:01;93643.81;;;30.81;36.02
76084;BME280;64789;0.000;0.000;2023-08-17T13:08:26;93642.16;;;30.70;36.78
76084;BME280;64789;0.000;0.000;2023-08-17T13:10:52;93649.44;;;30.73;36.44
76084;BME280;64789;0.000;0.000;2023-08-17T13:13:18;93646.47;;;30.69;36.02
76084;BME280;64789;0.000;0.000;2023-08-17T13:15:43;93651.88;;;30.49;35.89
76084;BME280;64789;0.000;0.000;2023-08-17T13:18:09;93649.88;;;30.22;35.53